sensor_id;sensor_type;location;lat;lon;timestamp;temperature;humidity
71733;DHT22;65965;43.502;3.716;2022-12-18T00:01:17;-0.80;89.90
71733;DHT22;65965;43.502;3.716;2022-12-18T00:03:42;-0.70;89.80
71733;DHT22;65965;43.502;3.716;2022-12-18T00:06:08;-0.70;89.30
71733;DHT22;65965;43.502;3.716;2022-12-18T00:08:34;-0.70;89.10
71733;DHT22;65965;43.502;3.716;2022-12-18T00:11:05;-0.60;89.50
71733;DHT22;65965;43.502;3.716;2022-12-18T00:13:31;-0.60;89.30
71733;DHT22;65965;43.502;3.716;2022-12-18T00:16:02;-0.80;88.90
71733;DHT22;65965;43.502;3.716;2022-12-18T00:18:28;-1.10;89.20
71733;DHT22;65965;43.502;3.716;2022-12-18T00:20:54;-1.20;90.10
71733;DHT22;65965;43.502;3.716;2022-12-18T00:23:23;-1.40;90.50
71733;DHT22;65965;43.502;3.716;2022-12-18T00:25:49;-1.50;90.80
71733;DHT22;65965;43.502;3.716;2022-12-18T00:28:15;-1.50;91.10
71733;DHT22;65965;43.502;3.716;2022-12-18T00:30:40;-1.60;91.30
71733;DHT22;65965;43.502;3.716;2022-12-18T00:33:06;-1.70;91.40
71733;DHT22;65965;43.502;3.716;2022-12-18T00:35:32;-1.70;91.60
71733;DHT22;65965;43.502;3.716;2022-12-18T00:37:58;-1.90;91.70
71733;DHT22;65965;43.502;3.716;2022-12-18T00:40:24;-1.90;91.90
71733;DHT22;65965;43.502;3.716;2022-12-18T00:42:49;-2.00;92.10
71733;DHT22;65965;43.502;3.716;2022-12-18T00:45:30;-2.00;92.30
71733;DHT22;65965;43.502;3.716;2022-12-18T00:47:56;-1.90;92.50
71733;DHT22;65965;43.502;3.716;2022-12-18T00:50:24;-1.90;92.60
71733;DHT22;65965;43.502;3.716;2022-12-18T00:52:50;-2.00;92.70
71733;DHT22;65965;43.502;3.716;2022-12-18T00:55:16;-1.90;93.00
71733;DHT22;65965;43.502;3.716;2022-12-18T00:57:42;-1.90;93.00
71733;DHT22;65965;43.502;3.716;2022-12-18T01:00:11;-2.00;93.00
71733;DHT22;65965;43.502;3.716;2022-12-18T01:02:37;-2.10;92.90
71733;DHT22;65965;43.502;3.716;2022-12-18T01:05:03;-2.10;93.10
71733;DHT22;65965;43.502;3.716;2022-12-18T01:07:29;-2.20;93.20
71733;DHT22;65965;43.502;3.716;2022-12-18T01:09:55;-2.10;93.30
71733;DHT22;65965;43.502;3.716;2022-12-18T01:12:21;-2.10;93.30
71733;DHT22;65965;43.502;3.716;2022-12-18T01:14:47;-2.10;93.40
71733;DHT22;65965;43.502;3.716;2022-12-18T01:17:12;-2.20;93.50
71733;DHT22;65965;43.502;3.716;2022-12-18T01:19:38;-2.10;93.70
71733;DHT22;65965;43.502;3.716;2022-12-18T01:22:04;-1.80;93.80
71733;DHT22;65965;43.502;3.716;2022-12-18T01:24:30;-1.70;93.90
71733;DHT22;65965;43.502;3.716;2022-12-18T01:26:55;-1.70;93.90
71733;DHT22;65965;43.502;3.716;2022-12-18T01:29:22;-1.70;93.90
71733;DHT22;65965;43.502;3.716;2022-12-18T01:31:48;-1.80;93.80
71733;DHT22;65965;43.502;3.716;2022-12-18T01:34:14;-1.80;93.80
71733;DHT22;65965;43.502;3.716;2022-12-18T01:36:40;-1.60;94.00
71733;DHT22;65965;43.502;3.716;2022-12-18T01:39:08;-1.60;94.00
71733;DHT22;65965;43.502;3.716;2022-12-18T01:41:35;-1.50;94.10
71733;DHT22;65965;43.502;3.716;2022-12-18T01:44:55;-1.20;94.00
71733;DHT22;65965;43.502;3.716;2022-12-18T01:53:04;-0.70;91.60
71733;DHT22;65965;43.502;3.716;2022-12-18T01:55:35;-0.70;91.00
71733;DHT22;65965;43.502;3.716;2022-12-18T01:58:02;-0.80;90.30
71733;DHT22;65965;43.502;3.716;2022-12-18T02:00:29;-0.90;90.40
71733;DHT22;65965;43.502;3.716;2022-12-18T02:02:56;-0.90;90.80
71733;DHT22;65965;43.502;3.716;2022-12-18T02:19:43;-0.60;88.20
71733;DHT22;65965;43.502;3.716;2022-12-18T02:25:10;-0.80;88.50
71733;DHT22;65965;43.502;3.716;2022-12-18T02:27:39;-0.90;88.60
71733;DHT22;65965;43.502;3.716;2022-12-18T02:30:07;-1.00;89.20
71733;DHT22;65965;43.502;3.716;2022-12-18T02:32:46;-1.10;89.80
71733;DHT22;65965;43.502;3.716;2022-12-18T02:35:16;-0.80;89.70
71733;DHT22;65965;43.502;3.716;2022-12-18T02:37:43;-0.90;89.00
71733;DHT22;65965;43.502;3.716;2022-12-18T02:40:11;-1.10;89.20
71733;DHT22;65965;43.502;3.716;2022-12-18T02:42:37;-1.10;89.80
71733;DHT22;65965;43.502;3.716;2022-12-18T02:45:03;-1.10;90.30
71733;DHT22;65965;43.502;3.716;2022-12-18T02:47:32;-1.10;90.10
71733;DHT22;65965;43.502;3.716;2022-12-18T02:50:06;-1.30;90.00
71733;DHT22;65965;43.502;3.716;2022-12-18T02:58:39;-1.40;90.80
71733;DHT22;65965;43.502;3.716;2022-12-18T03:03:38;-1.30;91.00
71733;DHT22;65965;43.502;3.716;2022-12-18T03:06:08;-1.20;90.70
71733;DHT22;65965;43.502;3.716;2022-12-18T03:08:44;-1.20;90.40
71733;DHT22;65965;43.502;3.716;2022-12-18T03:11:13;-1.20;90.30
71733;DHT22;65965;43.502;3.716;2022-12-18T03:13:47;-1.30;90.60
71733;DHT22;65965;43.502;3.716;2022-12-18T03:16:25;-1.30;90.80
71733;DHT22;65965;43.502;3.716;2022-12-18T03:19:03;-1.50;90.90
71733;DHT22;65965;43.502;3.716;2022-12-18T03:21:38;-1.40;91.40
71733;DHT22;65965;43.502;3.716;2022-12-18T03:24:07;-1.40;91.50
71733;DHT22;65965;43.502;3.716;2022-12-18T03:26:35;-1.30;91.50
71733;DHT22;65965;43.502;3.716;2022-12-18T03:29:25;-1.40;91.40
71733;DHT22;65965;43.502;3.716;2022-12-18T03:32:01;-1.40;91.50
71733;DHT22;65965;43.502;3.716;2022-12-18T03:34:34;-1.30;91.50
71733;DHT22;65965;43.502;3.716;2022-12-18T03:37:05;-1.30;91.50
71733;DHT22;65965;43.502;3.716;2022-12-18T03:39:31;-1.30;91.30
71733;DHT22;65965;43.502;3.716;2022-12-18T03:47:16;-1.30;91.80
71733;DHT22;65965;43.502;3.716;2022-12-18T03:55:58;-1.00;90.70
71733;DHT22;65965;43.502;3.716;2022-12-18T03:58:26;-1.00;90.00
71733;DHT22;65965;43.502;3.716;2022-12-18T04:00:55;-1.10;90.30
71733;DHT22;65965;43.502;3.716;2022-12-18T04:03:23;-1.20;90.60
71733;DHT22;65965;43.502;3.716;2022-12-18T04:05:51;-1.20;90.80
71733;DHT22;65965;43.502;3.716;2022-12-18T04:08:18;-1.30;90.90
71733;DHT22;65965;43.502;3.716;2022-12-18T04:10:45;-1.20;91.00
71733;DHT22;65965;43.502;3.716;2022-12-18T04:13:10;-1.30;91.00
71733;DHT22;65965;43.502;3.716;2022-12-18T04:15:37;-1.10;91.10
71733;DHT22;65965;43.502;3.716;2022-12-18T04:18:03;-0.80;90.40
71733;DHT22;65965;43.502;3.716;2022-12-18T04:20:29;-0.80;89.70
71733;DHT22;65965;43.502;3.716;2022-12-18T04:22:55;-0.90;89.30
71733;DHT22;65965;43.502;3.716;2022-12-18T04:25:21;-0.90;89.20
71733;DHT22;65965;43.502;3.716;2022-12-18T04:27:46;-1.00;89.50
71733;DHT22;65965;43.502;3.716;2022-12-18T04:30:12;-1.10;89.70
71733;DHT22;65965;43.502;3.716;2022-12-18T04:32:38;-1.00;89.70
71733;DHT22;65965;43.502;3.716;2022-12-18T04:35:04;-0.90;89.50
71733;DHT22;65965;43.502;3.716;2022-12-18T04:37:32;-0.90;89.10
71733;DHT22;65965;43.502;3.716;2022-12-18T04:39:57;-0.90;88.90
71733;DHT22;65965;43.502;3.716;2022-12-18T04:42:23;-0.80;89.00
71733;DHT22;65965;43.502;3.716;2022-12-18T04:44:49;-0.80;88.60
71733;DHT22;65965;43.502;3.716;2022-12-18T04:47:14;-0.80;88.70
71733;DHT22;65965;43.502;3.716;2022-12-18T04:49:40;-0.80;88.50
71733;DHT22;65965;43.502;3.716;2022-12-18T04:52:09;-0.80;88.50
71733;DHT22;65965;43.502;3.716;2022-12-18T04:54:34;-0.80;88.50
71733;DHT22;65965;43.502;3.716;2022-12-18T04:57:00;-0.90;88.70
71733;DHT22;65965;43.502;3.716;2022-12-18T04:59:26;-0.90;89.00
71733;DHT22;65965;43.502;3.716;2022-12-18T05:01:51;-0.90;88.80
71733;DHT22;65965;43.502;3.716;2022-12-18T05:04:17;-1.00;89.00
71733;DHT22;65965;43.502;3.716;2022-12-18T05:06:43;-1.10;89.30
71733;DHT22;65965;43.502;3.716;2022-12-18T05:09:08;-0.90;89.50
71733;DHT22;65965;43.502;3.716;2022-12-18T05:11:37;-0.90;89.10
71733;DHT22;65965;43.502;3.716;2022-12-18T05:14:03;-1.00;88.90
71733;DHT22;65965;43.502;3.716;2022-12-18T05:16:29;-1.00;89.40
71733;DHT22;65965;43.502;3.716;2022-12-18T05:18:55;-0.90;89.50
71733;DHT22;65965;43.502;3.716;2022-12-18T05:21:20;-0.90;89.30
71733;DHT22;65965;43.502;3.716;2022-12-18T05:23:46;-0.80;89.30
71733;DHT22;65965;43.502;3.716;2022-12-18T05:26:17;-0.60;88.70
71733;DHT22;65965;43.502;3.716;2022-12-18T05:28:44;-0.60;87.80
71733;DHT22;65965;43.502;3.716;2022-12-18T05:31:10;-0.60;87.60
71733;DHT22;65965;43.502;3.716;2022-12-18T05:33:36;-0.60;88.00
71733;DHT22;65965;43.502;3.716;2022-12-18T05:36:03;-0.40;87.60
71733;DHT22;65965;43.502;3.716;2022-12-18T05:38:30;-0.30;87.00
71733;DHT22;65965;43.502;3.716;2022-12-18T05:40:57;-0.10;86.40
71733;DHT22;65965;43.502;3.716;2022-12-18T05:43:24;-0.20;85.90
71733;DHT22;65965;43.502;3.716;2022-12-18T05:45:50;-0.40;86.10
71733;DHT22;65965;43.502;3.716;2022-12-18T05:48:16;-0.60;86.80
71733;DHT22;65965;43.502;3.716;2022-12-18T05:50:44;-0.80;87.50
71733;DHT22;65965;43.502;3.716;2022-12-18T05:53:12;-1.00;88.10
71733;DHT22;65965;43.502;3.716;2022-12-18T05:55:40;-1.00;88.80
71733;DHT22;65965;43.502;3.716;2022-12-18T05:58:07;-1.10;88.90
71733;DHT22;65965;43.502;3.716;2022-12-18T06:00:35;-1.10;89.20
71733;DHT22;65965;43.502;3.716;2022-12-18T06:03:04;-1.20;89.20
71733;DHT22;65965;43.502;3.716;2022-12-18T06:05:38;-1.30;89.60
71733;DHT22;65965;43.502;3.716;2022-12-18T06:08:04;-1.30;89.80
71733;DHT22;65965;43.502;3.716;2022-12-18T06:10:30;-1.40;90.10
71733;DHT22;65965;43.502;3.716;2022-12-18T06:12:55;-1.30;90.10
71733;DHT22;65965;43.502;3.716;2022-12-18T06:15:21;-1.30;90.00
71733;DHT22;65965;43.502;3.716;2022-12-18T06:17:47;-1.20;90.10
71733;DHT22;65965;43.502;3.716;2022-12-18T06:20:12;-1.20;89.90
71733;DHT22;65965;43.502;3.716;2022-12-18T06:22:38;-1.10;90.00
71733;DHT22;65965;43.502;3.716;2022-12-18T06:25:04;-0.90;90.20
71733;DHT22;65965;43.502;3.716;2022-12-18T06:27:31;-0.70;89.10
71733;DHT22;65965;43.502;3.716;2022-12-18T06:29:59;-0.50;88.40
71733;DHT22;65965;43.502;3.716;2022-12-18T06:32:25;-0.40;88.00
71733;DHT22;65965;43.502;3.716;2022-12-18T06:34:51;-0.20;87.50
71733;DHT22;65965;43.502;3.716;2022-12-18T06:37:16;-0.20;87.10
71733;DHT22;65965;43.502;3.716;2022-12-18T06:39:42;0.00;86.70
71733;DHT22;65965;43.502;3.716;2022-12-18T06:42:08;0.10;85.60
71733;DHT22;65965;43.502;3.716;2022-12-18T06:44:33;0.20;85.40
71733;DHT22;65965;43.502;3.716;2022-12-18T06:46:59;0.30;85.00
71733;DHT22;65965;43.502;3.716;2022-12-18T06:49:25;0.30;84.80
71733;DHT22;65965;43.502;3.716;2022-12-18T06:51:51;0.40;85.00
71733;DHT22;65965;43.502;3.716;2022-12-18T06:54:17;0.50;84.50
71733;DHT22;65965;43.502;3.716;2022-12-18T06:56:45;0.60;84.10
71733;DHT22;65965;43.502;3.716;2022-12-18T06:59:12;0.70;83.90
71733;DHT22;65965;43.502;3.716;2022-12-18T07:01:38;0.80;83.10
71733;DHT22;65965;43.502;3.716;2022-12-18T07:04:04;0.90;83.10
71733;DHT22;65965;43.502;3.716;2022-12-18T07:06:30;1.00;82.50
71733;DHT22;65965;43.502;3.716;2022-12-18T07:08:56;1.00;82.40
71733;DHT22;65965;43.502;3.716;2022-12-18T07:11:22;1.00;83.10
71733;DHT22;65965;43.502;3.716;2022-12-18T07:13:47;1.00;82.60
71733;DHT22;65965;43.502;3.716;2022-12-18T07:16:14;1.00;82.40
71733;DHT22;65965;43.502;3.716;2022-12-18T07:18:41;1.00;82.40
71733;DHT22;65965;43.502;3.716;2022-12-18T07:21:08;1.00;82.00
71733;DHT22;65965;43.502;3.716;2022-12-18T07:23:35;1.10;83.20
71733;DHT22;65965;43.502;3.716;2022-12-18T07:26:03;1.20;81.80
71733;DHT22;65965;43.502;3.716;2022-12-18T07:28:29;1.20;82.00
71733;DHT22;65965;43.502;3.716;2022-12-18T07:30:54;1.30;81.40
71733;DHT22;65965;43.502;3.716;2022-12-18T07:33:20;1.40;81.90
71733;DHT22;65965;43.502;3.716;2022-12-18T07:35:46;1.50;80.90
71733;DHT22;65965;43.502;3.716;2022-12-18T07:38:11;1.60;80.70
71733;DHT22;65965;43.502;3.716;2022-12-18T07:40:37;1.70;80.70
71733;DHT22;65965;43.502;3.716;2022-12-18T07:43:03;1.90;80.00
71733;DHT22;65965;43.502;3.716;2022-12-18T07:45:31;2.10;80.10
71733;DHT22;65965;43.502;3.716;2022-12-18T07:47:57;2.20;78.90
71733;DHT22;65965;43.502;3.716;2022-12-18T07:50:23;2.40;76.40
71733;DHT22;65965;43.502;3.716;2022-12-18T07:52:49;2.60;76.30
71733;DHT22;65965;43.502;3.716;2022-12-18T07:55:15;2.90;74.00
71733;DHT22;65965;43.502;3.716;2022-12-18T07:57:40;3.00;74.40
71733;DHT22;65965;43.502;3.716;2022-12-18T08:00:06;3.10;74.20
71733;DHT22;65965;43.502;3.716;2022-12-18T08:02:33;3.10;73.40
71733;DHT22;65965;43.502;3.716;2022-12-18T08:04:58;3.20;75.00
71733;DHT22;65965;43.502;3.716;2022-12-18T08:07:24;3.20;73.10
71733;DHT22;65965;43.502;3.716;2022-12-18T08:09:50;3.30;72.90
71733;DHT22;65965;43.502;3.716;2022-12-18T08:12:16;3.30;73.10
71733;DHT22;65965;43.502;3.716;2022-12-18T08:14:41;3.40;73.80
71733;DHT22;65965;43.502;3.716;2022-12-18T08:17:07;3.40;71.90
71733;DHT22;65965;43.502;3.716;2022-12-18T08:19:33;3.40;71.60
71733;DHT22;65965;43.502;3.716;2022-12-18T08:21:59;3.50;71.60
71733;DHT22;65965;43.502;3.716;2022-12-18T08:24:24;3.50;73.30
71733;DHT22;65965;43.502;3.716;2022-12-18T08:26:51;3.50;71.80
71733;DHT22;65965;43.502;3.716;2022-12-18T08:29:16;3.60;71.90
71733;DHT22;65965;43.502;3.716;2022-12-18T08:31:42;3.60;71.40
71733;DHT22;65965;43.502;3.716;2022-12-18T08:34:08;3.60;71.60
71733;DHT22;65965;43.502;3.716;2022-12-18T08:36:34;3.60;71.70
71733;DHT22;65965;43.502;3.716;2022-12-18T08:39:00;3.70;70.90
71733;DHT22;65965;43.502;3.716;2022-12-18T08:41:25;3.70;72.50
71733;DHT22;65965;43.502;3.716;2022-12-18T08:43:51;3.80;71.60
71733;DHT22;65965;43.502;3.716;2022-12-18T08:46:41;3.80;70.60
71733;DHT22;65965;43.502;3.716;2022-12-18T08:49:07;3.80;70.90
71733;DHT22;65965;43.502;3.716;2022-12-18T08:51:33;3.90;71.80
71733;DHT22;65965;43.502;3.716;2022-12-18T08:54:00;3.90;71.80
71733;DHT22;65965;43.502;3.716;2022-12-18T08:56:26;3.90;71.10
71733;DHT22;65965;43.502;3.716;2022-12-18T08:58:53;3.90;71.00
71733;DHT22;65965;43.502;3.716;2022-12-18T09:01:19;4.00;70.50
71733;DHT22;65965;43.502;3.716;2022-12-18T09:03:51;4.00;70.40
71733;DHT22;65965;43.502;3.716;2022-12-18T09:06:19;4.00;70.20
71733;DHT22;65965;43.502;3.716;2022-12-18T09:08:45;4.10;70.60
71733;DHT22;65965;43.502;3.716;2022-12-18T09:11:25;4.20;71.00
71733;DHT22;65965;43.502;3.716;2022-12-18T09:13:51;4.20;70.10
71733;DHT22;65965;43.502;3.716;2022-12-18T09:16:17;4.20;69.80
71733;DHT22;65965;43.502;3.716;2022-12-18T09:18:43;4.30;70.30
71733;DHT22;65965;43.502;3.716;2022-12-18T09:21:14;4.40;70.40
71733;DHT22;65965;43.502;3.716;2022-12-18T09:23:40;4.40;70.40
71733;DHT22;65965;43.502;3.716;2022-12-18T09:26:06;4.50;70.50
71733;DHT22;65965;43.502;3.716;2022-12-18T09:28:32;4.70;70.00
71733;DHT22;65965;43.502;3.716;2022-12-18T09:30:58;4.60;69.30
71733;DHT22;65965;43.502;3.716;2022-12-18T09:33:24;4.50;69.30
71733;DHT22;65965;43.502;3.716;2022-12-18T09:35:50;4.50;70.10
71733;DHT22;65965;43.502;3.716;2022-12-18T09:38:19;4.60;71.20
71733;DHT22;65965;43.502;3.716;2022-12-18T09:40:48;4.60;71.10
71733;DHT22;65965;43.502;3.716;2022-12-18T09:43:30;4.60;70.50
71733;DHT22;65965;43.502;3.716;2022-12-18T09:46:06;4.60;70.50
71733;DHT22;65965;43.502;3.716;2022-12-18T09:48:41;4.80;72.00
71733;DHT22;65965;43.502;3.716;2022-12-18T09:51:32;4.90;70.30
71733;DHT22;65965;43.502;3.716;2022-12-18T09:54:03;5.00;70.70
71733;DHT22;65965;43.502;3.716;2022-12-18T09:56:35;5.10;71.40
71733;DHT22;65965;43.502;3.716;2022-12-18T09:59:03;5.20;68.90
71733;DHT22;65965;43.502;3.716;2022-12-18T10:01:31;5.10;69.70
71733;DHT22;65965;43.502;3.716;2022-12-18T10:03:57;5.10;70.40
71733;DHT22;65965;43.502;3.716;2022-12-18T10:28:14;5.90;69.50
71733;DHT22;65965;43.502;3.716;2022-12-18T10:30:42;6.00;70.60
71733;DHT22;65965;43.502;3.716;2022-12-18T10:33:20;5.90;70.00
71733;DHT22;65965;43.502;3.716;2022-12-18T10:35:49;5.90;70.30
71733;DHT22;65965;43.502;3.716;2022-12-18T10:40:52;5.80;70.80
71733;DHT22;65965;43.502;3.716;2022-12-18T10:43:34;5.90;69.70
71733;DHT22;65965;43.502;3.716;2022-12-18T10:48:28;6.60;69.00
71733;DHT22;65965;43.502;3.716;2022-12-18T10:50:55;6.60;67.40
71733;DHT22;65965;43.502;3.716;2022-12-18T10:53:28;6.30;68.10
71733;DHT22;65965;43.502;3.716;2022-12-18T10:55:57;6.40;68.80
71733;DHT22;65965;43.502;3.716;2022-12-18T10:58:37;6.50;67.20
71733;DHT22;65965;43.502;3.716;2022-12-18T11:01:17;6.60;69.10
71733;DHT22;65965;43.502;3.716;2022-12-18T11:03:46;6.70;68.80
71733;DHT22;65965;43.502;3.716;2022-12-18T11:06:14;6.70;69.20
71733;DHT22;65965;43.502;3.716;2022-12-18T11:08:42;6.50;69.20
71733;DHT22;65965;43.502;3.716;2022-12-18T11:11:22;6.40;69.50
71733;DHT22;65965;43.502;3.716;2022-12-18T11:16:23;6.30;70.40
71733;DHT22;65965;43.502;3.716;2022-12-18T11:18:49;6.40;70.50
71733;DHT22;65965;43.502;3.716;2022-12-18T11:21:15;6.60;71.30
71733;DHT22;65965;43.502;3.716;2022-12-18T11:23:51;6.60;70.90
71733;DHT22;65965;43.502;3.716;2022-12-18T11:26:17;6.50;71.80
71733;DHT22;65965;43.502;3.716;2022-12-18T11:28:51;6.60;71.40
71733;DHT22;65965;43.502;3.716;2022-12-18T11:31:26;6.70;71.40
71733;DHT22;65965;43.502;3.716;2022-12-18T11:34:13;6.60;71.30
71733;DHT22;65965;43.502;3.716;2022-12-18T11:36:47;6.90;71.60
71733;DHT22;65965;43.502;3.716;2022-12-18T11:41:49;7.20;70.10
71733;DHT22;65965;43.502;3.716;2022-12-18T11:44:49;7.20;70.20
71733;DHT22;65965;43.502;3.716;2022-12-18T11:49:49;7.40;70.20
71733;DHT22;65965;43.502;3.716;2022-12-18T11:52:28;7.60;70.00
71733;DHT22;65965;43.502;3.716;2022-12-18T11:54:58;7.60;70.30
71733;DHT22;65965;43.502;3.716;2022-12-18T11:57:39;7.60;70.20
71733;DHT22;65965;43.502;3.716;2022-12-18T12:08:20;7.40;72.00
71733;DHT22;65965;43.502;3.716;2022-12-18T12:19:30;7.50;72.20
71733;DHT22;65965;43.502;3.716;2022-12-18T12:22:04;7.50;72.60
71733;DHT22;65965;43.502;3.716;2022-12-18T12:25:02;7.60;72.20
71733;DHT22;65965;43.502;3.716;2022-12-18T12:36:23;7.80;72.70
71733;DHT22;65965;43.502;3.716;2022-12-18T12:39:05;7.70;73.50
71733;DHT22;65965;43.502;3.716;2022-12-18T12:41:33;7.70;73.10
71733;DHT22;65965;43.502;3.716;2022-12-18T12:44:49;7.60;73.90
71733;DHT22;65965;43.502;3.716;2022-12-18T12:47:35;7.70;74.10
71733;DHT22;65965;43.502;3.716;2022-12-18T12:50:05;7.70;74.30
71733;DHT22;65965;43.502;3.716;2022-12-18T12:52:53;7.60;74.60
71733;DHT22;65965;43.502;3.716;2022-12-18T12:55:25;7.60;74.50
71733;DHT22;65965;43.502;3.716;2022-12-18T12:58:15;7.60;74.60
71733;DHT22;65965;43.502;3.716;2022-12-18T13:01:01;7.70;75.10
71733;DHT22;65965;43.502;3.716;2022-12-18T13:09:00;7.80;74.90
71733;DHT22;65965;43.502;3.716;2022-12-18T13:11:30;7.80;75.10
71733;DHT22;65965;43.502;3.716;2022-12-18T13:14:38;7.80;75.10
71733;DHT22;65965;43.502;3.716;2022-12-18T13:19:50;7.90;75.30
71733;DHT22;65965;43.502;3.716;2022-12-18T13:22:35;7.90;75.70
71733;DHT22;65965;43.502;3.716;2022-12-18T13:25:02;7.90;75.80
71733;DHT22;65965;43.502;3.716;2022-12-18T13:38:35;8.20;75.60
71733;DHT22;65965;43.502;3.716;2022-12-18T13:43:46;8.30;75.90
71733;DHT22;65965;43.502;3.716;2022-12-18T13:51:49;9.00;73.70
71733;DHT22;65965;43.502;3.716;2022-12-18T13:54:39;8.90;73.80
71733;DHT22;65965;43.502;3.716;2022-12-18T13:57:23;8.90;74.60
71733;DHT22;65965;43.502;3.716;2022-12-18T13:59:51;8.80;74.60
71733;DHT22;65965;43.502;3.716;2022-12-18T14:02:21;8.90;74.40
71733;DHT22;65965;43.502;3.716;2022-12-18T14:04:48;9.10;74.30
71733;DHT22;65965;43.502;3.716;2022-12-18T14:07:22;9.20;74.10
71733;DHT22;65965;43.502;3.716;2022-12-18T14:09:52;9.20;74.50
71733;DHT22;65965;43.502;3.716;2022-12-18T14:12:26;9.10;74.50
71733;DHT22;65965;43.502;3.716;2022-12-18T14:17:54;8.90;75.30
71733;DHT22;65965;43.502;3.716;2022-12-18T14:20:21;8.80;76.00
71733;DHT22;65965;43.502;3.716;2022-12-18T14:22:48;8.90;76.00
71733;DHT22;65965;43.502;3.716;2022-12-18T14:25:23;8.90;76.00
71733;DHT22;65965;43.502;3.716;2022-12-18T14:30:38;8.90;76.20
71733;DHT22;65965;43.502;3.716;2022-12-18T14:33:21;8.80;76.70
71733;DHT22;65965;43.502;3.716;2022-12-18T14:40:56;8.70;77.40
71733;DHT22;65965;43.502;3.716;2022-12-18T14:43:22;8.80;77.40
71733;DHT22;65965;43.502;3.716;2022-12-18T14:45:49;8.80;77.30
71733;DHT22;65965;43.502;3.716;2022-12-18T14:51:16;8.80;77.50
71733;DHT22;65965;43.502;3.716;2022-12-18T14:53:45;8.80;77.80
71733;DHT22;65965;43.502;3.716;2022-12-18T14:56:19;8.70;77.60
71733;DHT22;65965;43.502;3.716;2022-12-18T14:58:56;8.70;78.40
71733;DHT22;65965;43.502;3.716;2022-12-18T15:01:34;8.60;78.50
71733;DHT22;65965;43.502;3.716;2022-12-18T15:04:02;8.60;79.10
71733;DHT22;65965;43.502;3.716;2022-12-18T15:06:40;8.60;78.80
71733;DHT22;65965;43.502;3.716;2022-12-18T15:09:22;8.60;78.70
71733;DHT22;65965;43.502;3.716;2022-12-18T15:11:48;8.60;79.00
71733;DHT22;65965;43.502;3.716;2022-12-18T15:14:32;8.70;78.90
71733;DHT22;65965;43.502;3.716;2022-12-18T15:16:59;8.70;79.10
71733;DHT22;65965;43.502;3.716;2022-12-18T15:19:41;8.70;79.10
71733;DHT22;65965;43.502;3.716;2022-12-18T15:22:33;8.60;79.10
71733;DHT22;65965;43.502;3.716;2022-12-18T15:25:00;8.60;79.30
71733;DHT22;65965;43.502;3.716;2022-12-18T15:27:31;8.60;79.60
71733;DHT22;65965;43.502;3.716;2022-12-18T15:32:34;8.50;80.10
71733;DHT22;65965;43.502;3.716;2022-12-18T15:35:14;8.40;80.00
71733;DHT22;65965;43.502;3.716;2022-12-18T15:37:41;8.40;80.20
71733;DHT22;65965;43.502;3.716;2022-12-18T15:40:11;8.40;80.40
71733;DHT22;65965;43.502;3.716;2022-12-18T15:42:37;8.30;80.90
71733;DHT22;65965;43.502;3.716;2022-12-18T15:45:22;8.30;81.00
71733;DHT22;65965;43.502;3.716;2022-12-18T15:47:47;8.20;81.40
71733;DHT22;65965;43.502;3.716;2022-12-18T15:50:13;8.20;81.70
71733;DHT22;65965;43.502;3.716;2022-12-18T15:52:44;8.20;81.70
71733;DHT22;65965;43.502;3.716;2022-12-18T15:55:16;8.20;81.70
71733;DHT22;65965;43.502;3.716;2022-12-18T15:58:01;8.20;81.80
71733;DHT22;65965;43.502;3.716;2022-12-18T16:00:27;8.20;81.90
71733;DHT22;65965;43.502;3.716;2022-12-18T16:02:53;8.20;81.80
71733;DHT22;65965;43.502;3.716;2022-12-18T16:05:20;8.10;81.50
71733;DHT22;65965;43.502;3.716;2022-12-18T16:07:47;8.20;82.00
71733;DHT22;65965;43.502;3.716;2022-12-18T16:10:13;8.20;82.10
71733;DHT22;65965;43.502;3.716;2022-12-18T16:12:38;8.20;82.00
71733;DHT22;65965;43.502;3.716;2022-12-18T16:15:05;8.20;82.10
71733;DHT22;65965;43.502;3.716;2022-12-18T16:17:31;8.20;82.00
71733;DHT22;65965;43.502;3.716;2022-12-18T16:19:57;8.10;82.30
71733;DHT22;65965;43.502;3.716;2022-12-18T16:22:26;8.10;83.30
71733;DHT22;65965;43.502;3.716;2022-12-18T16:24:54;8.20;83.20
71733;DHT22;65965;43.502;3.716;2022-12-18T16:27:21;8.20;83.30
71733;DHT22;65965;43.502;3.716;2022-12-18T16:29:47;8.30;83.30
71733;DHT22;65965;43.502;3.716;2022-12-18T16:32:18;8.30;83.60
71733;DHT22;65965;43.502;3.716;2022-12-18T16:34:44;8.40;83.50
71733;DHT22;65965;43.502;3.716;2022-12-18T16:37:12;8.50;83.40
71733;DHT22;65965;43.502;3.716;2022-12-18T16:39:38;8.60;84.20
71733;DHT22;65965;43.502;3.716;2022-12-18T16:42:10;8.80;84.00
71733;DHT22;65965;43.502;3.716;2022-12-18T16:44:42;8.90;83.00
71733;DHT22;65965;43.502;3.716;2022-12-18T16:47:08;8.90;83.80
71733;DHT22;65965;43.502;3.716;2022-12-18T16:49:34;8.90;83.90
71733;DHT22;65965;43.502;3.716;2022-12-18T16:51:59;9.00;84.30
71733;DHT22;65965;43.502;3.716;2022-12-18T16:54:25;9.00;83.60
71733;DHT22;65965;43.502;3.716;2022-12-18T16:56:54;8.90;83.20
71733;DHT22;65965;43.502;3.716;2022-12-18T16:59:20;8.80;83.90
71733;DHT22;65965;43.502;3.716;2022-12-18T17:01:46;8.70;84.50
71733;DHT22;65965;43.502;3.716;2022-12-18T17:04:12;8.60;84.10
71733;DHT22;65965;43.502;3.716;2022-12-18T17:06:41;8.60;84.70
71733;DHT22;65965;43.502;3.716;2022-12-18T17:09:10;8.60;85.00
71733;DHT22;65965;43.502;3.716;2022-12-18T17:11:36;8.50;85.30
71733;DHT22;65965;43.502;3.716;2022-12-18T17:14:13;8.50;85.90
71733;DHT22;65965;43.502;3.716;2022-12-18T17:16:39;8.70;86.80
71733;DHT22;65965;43.502;3.716;2022-12-18T17:19:05;8.80;85.50
71733;DHT22;65965;43.502;3.716;2022-12-18T17:21:31;9.00;85.70
71733;DHT22;65965;43.502;3.716;2022-12-18T17:24:01;9.00;85.20
71733;DHT22;65965;43.502;3.716;2022-12-18T17:26:29;9.40;86.70
71733;DHT22;65965;43.502;3.716;2022-12-18T17:28:56;9.40;85.50
71733;DHT22;65965;43.502;3.716;2022-12-18T17:31:24;10.00;86.10
71733;DHT22;65965;43.502;3.716;2022-12-18T17:33:50;10.50;83.80
71733;DHT22;65965;43.502;3.716;2022-12-18T17:36:17;10.80;82.20
71733;DHT22;65965;43.502;3.716;2022-12-18T17:38:43;10.90;82.30
71733;DHT22;65965;43.502;3.716;2022-12-18T17:41:14;10.80;82.10
71733;DHT22;65965;43.502;3.716;2022-12-18T17:43:39;10.70;82.40
71733;DHT22;65965;43.502;3.716;2022-12-18T17:46:13;10.90;82.00
71733;DHT22;65965;43.502;3.716;2022-12-18T17:48:39;11.20;81.10
71733;DHT22;65965;43.502;3.716;2022-12-18T17:51:07;11.10;81.40
71733;DHT22;65965;43.502;3.716;2022-12-18T17:53:34;11.20;81.20
71733;DHT22;65965;43.502;3.716;2022-12-18T17:56:00;11.00;81.60
71733;DHT22;65965;43.502;3.716;2022-12-18T17:58:27;11.20;80.40
71733;DHT22;65965;43.502;3.716;2022-12-18T18:00:53;11.40;79.60
71733;DHT22;65965;43.502;3.716;2022-12-18T18:03:20;11.40;79.90
71733;DHT22;65965;43.502;3.716;2022-12-18T18:05:45;11.50;79.60
71733;DHT22;65965;43.502;3.716;2022-12-18T18:08:11;11.40;79.70
71733;DHT22;65965;43.502;3.716;2022-12-18T18:10:39;11.50;79.30
71733;DHT22;65965;43.502;3.716;2022-12-18T18:13:22;11.50;79.00
71733;DHT22;65965;43.502;3.716;2022-12-18T18:16:09;11.70;79.00
71733;DHT22;65965;43.502;3.716;2022-12-18T18:18:35;11.70;79.20
71733;DHT22;65965;43.502;3.716;2022-12-18T18:21:05;11.60;79.50